sensor_id;sensor_type;location;lat;lon;timestamp;P1;durP1;ratioP1;P2;durP2;ratioP2
21624;SDS011;10974;51.034;3.744;2023-07-13T03:42:47;5.40;;;2.30;;
21624;SDS011;10974;51.034;3.744;2023-07-13T03:45:13;6.70;;;1.80;;
21624;SDS011;10974;51.034;3.744;2023-07-13T03:47:39;5.50;;;1.80;;
21624;SDS011;10974;51.034;3.744;2023-07-13T03:50:05;6.30;;;2.23;;
21624;SDS011;10974;51.034;3.744;2023-07-13T03:52:31;7.23;;;1.90;;
21624;SDS011;10974;51.034;3.744;2023-07-13T03:54:57;6.00;;;1.90;;
21624;SDS011;10974;51.034;3.744;2023-07-13T03:57:23;4.90;;;1.80;;
21624;SDS011;10974;51.034;3.744;2023-07-13T03:59:49;5.30;;;1.70;;
21624;SDS011;10974;51.034;3.744;2023-07-13T04:02:15;5.77;;;2.10;;
21624;SDS011;10974;51.034;3.744;2023-07-13T04:04:42;2.60;;;1.60;;
21624;SDS011;10974;51.034;3.744;2023-07-13T04:07:08;2.90;;;1.33;;
21624;SDS011;10974;51.034;3.744;2023-07-13T04:09:35;6.03;;;2.07;;
21624;SDS011;10974;51.034;3.744;2023-07-13T04:12:01;4.03;;;1.80;;
21624;SDS011;10974;51.034;3.744;2023-07-13T04:14:27;6.17;;;1.90;;
21624;SDS011;10974;51.034;3.744;2023-07-13T04:16:53;4.60;;;1.50;;
21624;SDS011;10974;51.034;3.744;2023-07-13T04:19:19;4.83;;;1.77;;
21624;SDS011;10974;51.034;3.744;2023-07-13T04:21:45;4.10;;;1.87;;
21624;SDS011;10974;51.034;3.744;2023-07-13T04:24:11;3.33;;;1.67;;
21624;SDS011;10974;51.034;3.744;2023-07-13T04:26:37;4.90;;;2.00;;
21624;SDS011;10974;51.034;3.744;2023-07-13T04:29:04;6.03;;;2.10;;
21624;SDS011;10974;51.034;3.744;2023-07-13T04:31:30;7.63;;;1.90;;
21624;SDS011;10974;51.034;3.744;2023-07-13T04:33:57;5.73;;;1.93;;
21624;SDS011;10974;51.034;3.744;2023-07-13T04:36:23;6.10;;;1.80;;
21624;SDS011;10974;51.034;3.744;2023-07-13T04:38:52;4.10;;;1.70;;
21624;SDS011;10974;51.034;3.744;2023-07-13T04:41:21;3.60;;;1.80;;
21624;SDS011;10974;51.034;3.744;2023-07-13T04:43:47;4.90;;;1.67;;
21624;SDS011;10974;51.034;3.744;2023-07-13T04:46:14;3.13;;;1.50;;
21624;SDS011;10974;51.034;3.744;2023-07-13T04:48:42;6.87;;;2.00;;
21624;SDS011;10974;51.034;3.744;2023-07-13T04:51:08;4.07;;;1.83;;
21624;SDS011;10974;51.034;3.744;2023-07-13T04:53:35;7.13;;;2.10;;
21624;SDS011;10974;51.034;3.744;2023-07-13T04:56:01;5.30;;;1.90;;
21624;SDS011;10974;51.034;3.744;2023-07-13T04:58:28;6.57;;;2.20;;
21624;SDS011;10974;51.034;3.744;2023-07-13T05:00:59;5.23;;;2.10;;
21624;SDS011;10974;51.034;3.744;2023-07-13T05:03:25;7.47;;;2.03;;
21624;SDS011;10974;51.034;3.744;2023-07-13T05:05:54;5.93;;;2.00;;
21624;SDS011;10974;51.034;3.744;2023-07-13T05:08:21;3.57;;;1.70;;
21624;SDS011;10974;51.034;3.744;2023-07-13T05:10:47;5.63;;;1.90;;
21624;SDS011;10974;51.034;3.744;2023-07-13T05:13:13;3.90;;;2.10;;
21624;SDS011;10974;51.034;3.744;2023-07-13T05:15:39;5.93;;;2.20;;
21624;SDS011;10974;51.034;3.744;2023-07-13T05:18:05;7.30;;;2.30;;
21624;SDS011;10974;51.034;3.744;2023-07-13T05:20:31;12.97;;;2.50;;
21624;SDS011;10974;51.034;3.744;2023-07-13T05:22:57;7.53;;;2.03;;
21624;SDS011;10974;51.034;3.744;2023-07-13T05:25:23;7.88;;;2.30;;
21624;SDS011;10974;51.034;3.744;2023-07-13T05:27:49;4.53;;;1.80;;
21624;SDS011;10974;51.034;3.744;2023-07-13T05:30:15;3.33;;;1.60;;
21624;SDS011;10974;51.034;3.744;2023-07-13T05:32:41;3.80;;;1.70;;
21624;SDS011;10974;51.034;3.744;2023-07-13T05:35:07;5.70;;;1.87;;
21624;SDS011;10974;51.034;3.744;2023-07-13T05:37:33;5.73;;;2.53;;
21624;SDS011;10974;51.034;3.744;2023-07-13T05:40:00;6.90;;;2.10;;
21624;SDS011;10974;51.034;3.744;2023-07-13T05:42:26;4.60;;;1.83;;
21624;SDS011;10974;51.034;3.744;2023-07-13T05:44:52;5.50;;;1.87;;
21624;SDS011;10974;51.034;3.744;2023-07-13T05:47:18;6.50;;;2.03;;
21624;SDS011;10974;51.034;3.744;2023-07-13T05:49:44;11.27;;;2.70;;
21624;SDS011;10974;51.034;3.744;2023-07-13T05:52:10;5.77;;;1.80;;
21624;SDS011;10974;51.034;3.744;2023-07-13T05:54:36;8.10;;;1.97;;
21624;SDS011;10974;51.034;3.744;2023-07-13T05:57:02;8.63;;;2.03;;
21624;SDS011;10974;51.034;3.744;2023-07-13T05:59:28;5.20;;;2.17;;
21624;SDS011;10974;51.034;3.744;2023-07-13T06:01:54;5.53;;;1.83;;
21624;SDS011;10974;51.034;3.744;2023-07-13T06:04:20;7.73;;;2.43;;
21624;SDS011;10974;51.034;3.744;2023-07-13T06:06:47;4.90;;;2.10;;
21624;SDS011;10974;51.034;3.744;2023-07-13T06:09:13;5.67;;;2.20;;
21624;SDS011;10974;51.034;3.744;2023-07-13T06:11:39;5.50;;;2.30;;
21624;SDS011;10974;51.034;3.744;2023-07-13T06:14:05;8.17;;;2.57;;
21624;SDS011;10974;51.034;3.744;2023-07-13T06:16:31;9.73;;;3.00;;
21624;SDS011;10974;51.034;3.744;2023-07-13T06:18:57;5.70;;;2.30;;
21624;SDS011;10974;51.034;3.744;2023-07-13T06:21:23;8.23;;;2.10;;
21624;SDS011;10974;51.034;3.744;2023-07-13T06:23:50;5.57;;;2.27;;
21624;SDS011;10974;51.034;3.744;2023-07-13T06:26:17;3.60;;;1.90;;
21624;SDS011;10974;51.034;3.744;2023-07-13T06:28:44;3.70;;;1.80;;
21624;SDS011;10974;51.034;3.744;2023-07-13T06:31:10;3.80;;;1.60;;
21624;SDS011;10974;51.034;3.744;2023-07-13T06:33:37;3.70;;;1.57;;
21624;SDS011;10974;51.034;3.744;2023-07-13T06:36:03;9.10;;;2.13;;
21624;SDS011;10974;51.034;3.744;2023-07-13T06:38:30;5.57;;;2.27;;
21624;SDS011;10974;51.034;3.744;2023-07-13T06:40:56;6.40;;;1.80;;
21624;SDS011;10974;51.034;3.744;2023-07-13T06:43:22;8.10;;;1.83;;
21624;SDS011;10974;51.034;3.744;2023-07-13T06:45:50;3.83;;;1.93;;
21624;SDS011;10974;51.034;3.744;2023-07-13T06:48:16;8.20;;;2.40;;
21624;SDS011;10974;51.034;3.744;2023-07-13T06:50:43;8.93;;;2.40;;
21624;SDS011;10974;51.034;3.744;2023-07-13T06:53:09;6.57;;;2.13;;
21624;SDS011;10974;51.034;3.744;2023-07-13T06:55:36;9.40;;;2.47;;
21624;SDS011;10974;51.034;3.744;2023-07-13T06:58:02;4.33;;;1.73;;
21624;SDS011;10974;51.034;3.744;2023-07-13T07:00:28;10.53;;;3.50;;
21624;SDS011;10974;51.034;3.744;2023-07-13T07:02:54;10.07;;;3.53;;
21624;SDS011;10974;51.034;3.744;2023-07-13T07:05:20;18.37;;;3.37;;
21624;SDS011;10974;51.034;3.744;2023-07-13T07:07:50;11.07;;;3.60;;
21624;SDS011;10974;51.034;3.744;2023-07-13T07:10:17;9.30;;;3.13;;
21624;SDS011;10974;51.034;3.744;2023-07-13T07:12:43;12.80;;;3.60;;
21624;SDS011;10974;51.034;3.744;2023-07-13T07:15:09;6.17;;;2.90;;
21624;SDS011;10974;51.034;3.744;2023-07-13T07:17:35;10.97;;;3.90;;
21624;SDS011;10974;51.034;3.744;2023-07-13T07:20:01;9.30;;;3.00;;
21624;SDS011;10974;51.034;3.744;2023-07-13T07:22:28;13.00;;;4.30;;
21624;SDS011;10974;51.034;3.744;2023-07-13T07:24:55;16.80;;;3.57;;
21624;SDS011;10974;51.034;3.744;2023-07-13T07:27:21;13.57;;;4.00;;
21624;SDS011;10974;51.034;3.744;2023-07-13T07:29:47;9.67;;;3.70;;
21624;SDS011;10974;51.034;3.744;2023-07-13T07:32:13;10.37;;;3.80;;
21624;SDS011;10974;51.034;3.744;2023-07-13T07:34:39;8.13;;;3.13;;
21624;SDS011;10974;51.034;3.744;2023-07-13T07:37:05;11.30;;;3.90;;
21624;SDS011;10974;51.034;3.744;2023-07-13T07:39:31;7.77;;;3.00;;
21624;SDS011;10974;51.034;3.744;2023-07-13T07:41:58;9.67;;;3.73;;
21624;SDS011;10974;51.034;3.744;2023-07-13T07:44:24;8.47;;;3.20;;
21624;SDS011;10974;51.034;3.744;2023-07-13T07:46:52;7.30;;;3.03;;
21624;SDS011;10974;51.034;3.744;2023-07-13T07:49:18;9.43;;;3.10;;
21624;SDS011;10974;51.034;3.744;2023-07-13T07:51:44;9.30;;;3.10;;
21624;SDS011;10974;51.034;3.744;2023-07-13T07:54:10;12.97;;;3.60;;
21624;SDS011;10974;51.034;3.744;2023-07-13T07:56:36;9.20;;;3.30;;
21624;SDS011;10974;51.034;3.744;2023-07-13T07:59:02;9.03;;;3.43;;
21624;SDS011;10974;51.034;3.744;2023-07-13T08:01:28;8.87;;;3.00;;
21624;SDS011;10974;51.034;3.744;2023-07-13T08:03:54;7.10;;;2.80;;
21624;SDS011;10974;51.034;3.744;2023-07-13T08:06:21;6.70;;;2.87;;
21624;SDS011;10974;51.034;3.744;2023-07-13T08:08:48;7.20;;;3.43;;
21624;SDS011;10974;51.034;3.744;2023-07-13T08:11:14;7.03;;;3.20;;
21624;SDS011;10974;51.034;3.744;2023-07-13T08:13:40;10.90;;;3.50;;
21624;SDS011;10974;51.034;3.744;2023-07-13T08:16:06;12.33;;;3.80;;
21624;SDS011;10974;51.034;3.744;2023-07-13T08:18:32;9.33;;;2.70;;
21624;SDS011;10974;51.034;3.744;2023-07-13T08:21:02;8.80;;;3.60;;
21624;SDS011;10974;51.034;3.744;2023-07-13T08:23:29;7.47;;;3.00;;
21624;SDS011;10974;51.034;3.744;2023-07-13T08:25:55;9.00;;;2.93;;
21624;SDS011;10974;51.034;3.744;2023-07-13T08:28:22;10.00;;;3.23;;
21624;SDS011;10974;51.034;3.744;2023-07-13T08:30:48;11.27;;;3.20;;
21624;SDS011;10974;51.034;3.744;2023-07-13T08:33:15;6.40;;;2.93;;
21624;SDS011;10974;51.034;3.744;2023-07-13T08:35:41;10.60;;;3.60;;
21624;SDS011;10974;51.034;3.744;2023-07-13T08:38:07;11.27;;;3.30;;
21624;SDS011;10974;51.034;3.744;2023-07-13T08:40:34;9.00;;;2.73;;
21624;SDS011;10974;51.034;3.744;2023-07-13T08:43:00;9.47;;;3.67;;
21624;SDS011;10974;51.034;3.744;2023-07-13T08:48:28;7.93;;;3.40;;
21624;SDS011;10974;51.034;3.744;2023-07-13T08:53:22;7.50;;;3.20;;
21624;SDS011;10974;51.034;3.744;2023-07-13T08:55:50;11.23;;;2.70;;
21624;SDS011;10974;51.034;3.744;2023-07-13T08:58:17;6.40;;;2.37;;
21624;SDS011;10974;51.034;3.744;2023-07-13T09:00:46;4.73;;;2.33;;
21624;SDS011;10974;51.034;3.744;2023-07-13T09:03:24;6.03;;;2.40;;
21624;SDS011;10974;51.034;3.744;2023-07-13T09:05:56;7.23;;;2.63;;
21624;SDS011;10974;51.034;3.744;2023-07-13T09:13:46;5.13;;;2.33;;
21624;SDS011;10974;51.034;3.744;2023-07-13T09:16:14;6.20;;;2.20;;
21624;SDS011;10974;51.034;3.744;2023-07-13T09:18:42;5.03;;;2.43;;
21624;SDS011;10974;51.034;3.744;2023-07-13T09:21:17;4.20;;;2.20;;
21624;SDS011;10974;51.034;3.744;2023-07-13T09:23:44;4.13;;;2.30;;
21624;SDS011;10974;51.034;3.744;2023-07-13T09:28:43;5.50;;;2.17;;
21624;SDS011;10974;51.034;3.744;2023-07-13T09:31:30;3.33;;;1.87;;
21624;SDS011;10974;51.034;3.744;2023-07-13T09:33:59;5.33;;;2.70;;
21624;SDS011;10974;51.034;3.744;2023-07-13T09:36:27;8.73;;;2.90;;
21624;SDS011;10974;51.034;3.744;2023-07-13T09:42:12;6.80;;;2.00;;
21624;SDS011;10974;51.034;3.744;2023-07-13T09:44:34;4.20;;;2.27;;
21624;SDS011;10974;51.034;3.744;2023-07-13T09:47:01;4.87;;;2.53;;
21624;SDS011;10974;51.034;3.744;2023-07-13T09:49:29;5.70;;;2.33;;
21624;SDS011;10974;51.034;3.744;2023-07-13T09:51:59;5.47;;;2.50;;
21624;SDS011;10974;51.034;3.744;2023-07-13T09:54:26;3.00;;;2.10;;
21624;SDS011;10974;51.034;3.744;2023-07-13T09:56:55;5.00;;;2.30;;
21624;SDS011;10974;51.034;3.744;2023-07-13T09:59:23;6.60;;;2.20;;
21624;SDS011;10974;51.034;3.744;2023-07-13T10:01:49;10.00;;;2.20;;
21624;SDS011;10974;51.034;3.744;2023-07-13T10:04:19;4.20;;;1.80;;
21624;SDS011;10974;51.034;3.744;2023-07-13T10:06:45;3.73;;;1.70;;
21624;SDS011;10974;51.034;3.744;2023-07-13T10:09:15;2.00;;;1.43;;
21624;SDS011;10974;51.034;3.744;2023-07-13T10:11:41;2.43;;;1.40;;
21624;SDS011;10974;51.034;3.744;2023-07-13T10:14:18;3.43;;;1.60;;
21624;SDS011;10974;51.034;3.744;2023-07-13T10:16:48;2.20;;;1.40;;
21624;SDS011;10974;51.034;3.744;2023-07-13T10:21:53;3.17;;;1.33;;
21624;SDS011;10974;51.034;3.744;2023-07-13T10:24:23;1.67;;;1.30;;
21624;SDS011;10974;51.034;3.744;2023-07-13T10:27:25;2.07;;;1.50;;
21624;SDS011;10974;51.034;3.744;2023-07-13T10:29:44;1.77;;;1.40;;
21624;SDS011;10974;51.034;3.744;2023-07-13T10:32:12;1.90;;;1.30;;
21624;SDS011;10974;51.034;3.744;2023-07-13T10:34:38;1.10;;;1.00;;
21624;SDS011;10974;51.034;3.744;2023-07-13T10:37:05;2.70;;;1.50;;
21624;SDS011;10974;51.034;3.744;2023-07-13T10:39:32;1.20;;;1.10;;
21624;SDS011;10974;51.034;3.744;2023-07-13T10:42:03;2.37;;;1.43;;
21624;SDS011;10974;51.034;3.744;2023-07-13T10:44:31;1.90;;;1.60;;
21624;SDS011;10974;51.034;3.744;2023-07-13T10:47:00;3.67;;;1.40;;
21624;SDS011;10974;51.034;3.744;2023-07-13T10:49:27;3.93;;;1.63;;
21624;SDS011;10974;51.034;3.744;2023-07-13T10:51:53;3.77;;;1.67;;
21624;SDS011;10974;51.034;3.744;2023-07-13T10:56:48;3.23;;;1.60;;
21624;SDS011;10974;51.034;3.744;2023-07-13T10:59:16;4.30;;;1.90;;
21624;SDS011;10974;51.034;3.744;2023-07-13T11:04:12;2.90;;;1.67;;
21624;SDS011;10974;51.034;3.744;2023-07-13T11:06:40;2.63;;;1.63;;
21624;SDS011;10974;51.034;3.744;2023-07-13T11:11:48;3.23;;;2.20;;
21624;SDS011;10974;51.034;3.744;2023-07-13T11:16:46;1.53;;;1.00;;
21624;SDS011;10974;51.034;3.744;2023-07-13T11:24:28;0.90;;;0.90;;
21624;SDS011;10974;51.034;3.744;2023-07-13T11:26:55;1.00;;;0.90;;
21624;SDS011;10974;51.034;3.744;2023-07-13T11:31:51;1.20;;;1.10;;
21624;SDS011;10974;51.034;3.744;2023-07-13T11:34:21;1.20;;;1.10;;
21624;SDS011;10974;51.034;3.744;2023-07-13T11:36:49;1.00;;;1.00;;
21624;SDS011;10974;51.034;3.744;2023-07-13T11:39:27;1.20;;;1.10;;
21624;SDS011;10974;51.034;3.744;2023-07-13T11:41:57;1.77;;;1.30;;
21624;SDS011;10974;51.034;3.744;2023-07-13T11:44:24;1.50;;;1.40;;
21624;SDS011;10974;51.034;3.744;2023-07-13T11:46:54;2.73;;;1.30;;
21624;SDS011;10974;51.034;3.744;2023-07-13T11:49:22;1.70;;;1.60;;
21624;SDS011;10974;51.034;3.744;2023-07-13T11:51:48;1.73;;;1.40;;
21624;SDS011;10974;51.034;3.744;2023-07-13T11:57:38;1.80;;;1.30;;
21624;SDS011;10974;51.034;3.744;2023-07-13T11:59:43;1.73;;;1.20;;
21624;SDS011;10974;51.034;3.744;2023-07-13T12:02:15;0.80;;;0.80;;
21624;SDS011;10974;51.034;3.744;2023-07-13T12:04:42;1.30;;;0.90;;
21624;SDS011;10974;51.034;3.744;2023-07-13T12:07:18;1.67;;;1.10;;
21624;SDS011;10974;51.034;3.744;2023-07-13T12:09:45;1.20;;;1.10;;
21624;SDS011;10974;51.034;3.744;2023-07-13T12:12:12;1.20;;;1.10;;
21624;SDS011;10974;51.034;3.744;2023-07-13T12:14:38;2.23;;;0.90;;
21624;SDS011;10974;51.034;3.744;2023-07-13T12:17:37;1.10;;;0.80;;
21624;SDS011;10974;51.034;3.744;2023-07-13T12:19:56;2.03;;;1.20;;
21624;SDS011;10974;51.034;3.744;2023-07-13T12:22:23;3.37;;;1.33;;
21624;SDS011;10974;51.034;3.744;2023-07-13T12:24:49;1.50;;;1.10;;
21624;SDS011;10974;51.034;3.744;2023-07-13T12:27:21;1.17;;;1.03;;
21624;SDS011;10974;51.034;3.744;2023-07-13T12:32:26;1.27;;;1.10;;
21624;SDS011;10974;51.034;3.744;2023-07-13T12:34:53;1.77;;;1.20;;
21624;SDS011;10974;51.034;3.744;2023-07-13T12:37:21;1.53;;;1.23;;
21624;SDS011;10974;51.034;3.744;2023-07-13T12:39:47;4.07;;;1.50;;
21624;SDS011;10974;51.034;3.744;2023-07-13T12:42:24;1.57;;;1.20;;
21624;SDS011;10974;51.034;3.744;2023-07-13T12:44:56;1.20;;;1.10;;
21624;SDS011;10974;51.034;3.744;2023-07-13T12:47:24;1.27;;;1.17;;
21624;SDS011;10974;51.034;3.744;2023-07-13T12:49:53;1.53;;;1.20;;
21624;SDS011;10974;51.034;3.744;2023-07-13T12:52:21;1.00;;;0.90;;
21624;SDS011;10974;51.034;3.744;2023-07-13T12:54:54;1.10;;;1.00;;
21624;SDS011;10974;51.034;3.744;2023-07-13T12:57:24;1.10;;;1.00;;
21624;SDS011;10974;51.034;3.744;2023-07-13T12:59:54;1.43;;;1.00;;
21624;SDS011;10974;51.034;3.744;2023-07-13T13:02:25;1.47;;;1.37;;
21624;SDS011;10974;51.034;3.744;2023-07-13T13:04:52;2.00;;;1.23;;
21624;SDS011;10974;51.034;3.744;2023-07-13T13:07:20;1.73;;;1.30;;
21624;SDS011;10974;51.034;3.744;2023-07-13T13:09:46;0.90;;;0.90;;
21624;SDS011;10974;51.034;3.744;2023-07-13T13:12:12;2.00;;;1.27;;
21624;SDS011;10974;51.034;3.744;2023-07-13T13:14:38;0.90;;;0.90;;
21624;SDS011;10974;51.034;3.744;2023-07-13T13:17:07;0.80;;;0.80;;
21624;SDS011;10974;51.034;3.744;2023-07-13T13:19:44;1.07;;;0.90;;
21624;SDS011;10974;51.034;3.744;2023-07-13T13:22:10;2.00;;;0.80;;
21624;SDS011;10974;51.034;3.744;2023-07-13T13:24:37;1.10;;;1.00;;
21624;SDS011;10974;51.034;3.744;2023-07-13T13:27:03;1.17;;;1.07;;
21624;SDS011;10974;51.034;3.744;2023-07-13T13:29:31;1.20;;;1.10;;
21624;SDS011;10974;51.034;3.744;2023-07-13T13:31:58;2.27;;;1.20;;
21624;SDS011;10974;51.034;3.744;2023-07-13T13:34:24;2.53;;;1.30;;
21624;SDS011;10974;51.034;3.744;2023-07-13T13:36:51;2.03;;;1.20;;
21624;SDS011;10974;51.034;3.744;2023-07-13T13:41:44;1.63;;;1.10;;
21624;SDS011;10974;51.034;3.744;2023-07-13T13:44:10;1.50;;;1.03;;
21624;SDS011;10974;51.034;3.744;2023-07-13T13:46:36;1.90;;;1.17;;
21624;SDS011;10974;51.034;3.744;2023-07-13T13:49:02;1.50;;;1.00;;
21624;SDS011;10974;51.034;3.744;2023-07-13T13:51:28;2.23;;;1.10;;
21624;SDS011;10974;51.034;3.744;2023-07-13T13:53:55;1.50;;;1.27;;
21624;SDS011;10974;51.034;3.744;2023-07-13T13:56:21;3.03;;;1.20;;
21624;SDS011;10974;51.034;3.744;2023-07-13T13:58:47;2.10;;;1.40;;
21624;SDS011;10974;51.034;3.744;2023-07-13T14:01:16;1.43;;;1.33;;
21624;SDS011;10974;51.034;3.744;2023-07-13T14:03:42;1.40;;;1.00;;
21624;SDS011;10974;51.034;3.744;2023-07-13T14:06:12;1.90;;;1.23;;
21624;SDS011;10974;51.034;3.744;2023-07-13T14:08:38;2.40;;;0.97;;
21624;SDS011;10974;51.034;3.744;2023-07-13T14:11:05;2.07;;;1.30;;
21624;SDS011;10974;51.034;3.744;2023-07-13T14:13:32;2.47;;;1.20;;
21624;SDS011;10974;51.034;3.744;2023-07-13T14:16:00;1.80;;;0.93;;
21624;SDS011;10974;51.034;3.744;2023-07-13T14:18:26;1.00;;;1.00;;
21624;SDS011;10974;51.034;3.744;2023-07-13T14:20:52;1.00;;;0.90;;
21624;SDS011;10974;51.034;3.744;2023-07-13T14:23:18;0.90;;;0.90;;
21624;SDS011;10974;51.034;3.744;2023-07-13T14:25:47;1.20;;;1.10;;
21624;SDS011;10974;51.034;3.744;2023-07-13T14:28:21;1.00;;;1.00;;
21624;SDS011;10974;51.034;3.744;2023-07-13T14:30:48;1.63;;;1.23;;
21624;SDS011;10974;51.034;3.744;2023-07-13T14:33:14;1.23;;;1.07;;
21624;SDS011;10974;51.034;3.744;2023-07-13T14:35:41;1.70;;;1.00;;
21624;SDS011;10974;51.034;3.744;2023-07-13T14:38:11;2.30;;;1.27;;
21624;SDS011;10974;51.034;3.744;2023-07-13T14:40:39;1.80;;;1.13;;
21624;SDS011;10974;51.034;3.744;2023-07-13T14:43:08;1.73;;;1.10;;
21624;SDS011;10974;51.034;3.744;2023-07-13T14:45:35;1.30;;;1.10;;
21624;SDS011;10974;51.034;3.744;2023-07-13T14:48:04;1.10;;;1.00;;
21624;SDS011;10974;51.034;3.744;2023-07-13T14:50:32;1.63;;;1.47;;
21624;SDS011;10974;51.034;3.744;2023-07-13T14:53:00;1.10;;;1.00;;
21624;SDS011;10974;51.034;3.744;2023-07-13T14:55:26;1.77;;;1.30;;
21624;SDS011;10974;51.034;3.744;2023-07-13T14:57:52;1.37;;;1.10;;
21624;SDS011;10974;51.034;3.744;2023-07-13T15:00:19;0.80;;;0.80;;
21624;SDS011;10974;51.034;3.744;2023-07-13T15:02:48;1.23;;;1.03;;
21624;SDS011;10974;51.034;3.744;2023-07-13T15:05:17;1.10;;;1.00;;
21624;SDS011;10974;51.034;3.744;2023-07-13T15:07:44;1.17;;;1.07;;
21624;SDS011;10974;51.034;3.744;2023-07-13T15:10:24;1.10;;;1.00;;
21624;SDS011;10974;51.034;3.744;2023-07-13T15:12:51;1.40;;;1.10;;
21624;SDS011;10974;51.034;3.744;2023-07-13T15:15:18;1.33;;;1.00;;
21624;SDS011;10974;51.034;3.744;2023-07-13T15:17:45;1.53;;;1.23;;
21624;SDS011;10974;51.034;3.744;2023-07-13T15:20:15;1.23;;;1.10;;
21624;SDS011;10974;51.034;3.744;2023-07-13T15:22:43;1.37;;;0.97;;
21624;SDS011;10974;51.034;3.744;2023-07-13T15:25:17;1.43;;;1.10;;
21624;SDS011;10974;51.034;3.744;2023-07-13T15:27:43;1.27;;;0.90;;
21624;SDS011;10974;51.034;3.744;2023-07-13T15:30:09;1.63;;;1.40;;
21624;SDS011;10974;51.034;3.744;2023-07-13T15:32:35;2.73;;;1.83;;
21624;SDS011;10974;51.034;3.744;2023-07-13T15:35:02;3.20;;;1.90;;
21624;SDS011;10974;51.034;3.744;2023-07-13T15:37:28;2.27;;;1.73;;
21624;SDS011;10974;51.034;3.744;2023-07-13T15:39:55;2.77;;;1.97;;
21624;SDS011;10974;51.034;3.744;2023-07-13T15:42:21;3.30;;;1.80;;
21624;SDS011;10974;51.034;3.744;2023-07-13T15:44:47;2.97;;;2.37;;
21624;SDS011;10974;51.034;3.744;2023-07-13T15:47:14;1.90;;;1.47;;
21624;SDS011;10974;51.034;3.744;2023-07-13T15:49:41;2.40;;;1.63;;
21624;SDS011;10974;51.034;3.744;2023-07-13T15:52:17;2.83;;;1.70;;
21624;SDS011;10974;51.034;3.744;2023-07-13T15:54:44;2.10;;;1.70;;
21624;SDS011;10974;51.034;3.744;2023-07-13T15:57:10;4.03;;;2.30;;
21624;SDS011;10974;51.034;3.744;2023-07-13T15:59:38;1.93;;;1.83;;
21624;SDS011;10974;51.034;3.744;2023-07-13T16:02:14;5.37;;;3.60;;
21624;SDS011;10974;51.034;3.744;2023-07-13T16:04:42;2.13;;;1.80;;
21624;SDS011;10974;51.034;3.744;2023-07-13T16:07:09;2.50;;;1.90;;
21624;SDS011;10974;51.034;3.744;2023-07-13T16:09:36;2.63;;;1.60;;
21624;SDS011;10974;51.034;3.744;2023-07-13T16:12:03;2.80;;;2.23;;
21624;SDS011;10974;51.034;3.744;2023-07-13T16:14:30;2.20;;;1.60;;
21624;SDS011;10974;51.034;3.744;2023-07-13T16:16:56;2.80;;;1.70;;
21624;SDS011;10974;51.034;3.744;2023-07-13T16:19:22;5.93;;;2.00;;
21624;SDS011;10974;51.034;3.744;2023-07-13T16:21:53;3.70;;;2.07;;
21624;SDS011;10974;51.034;3.744;2023-07-13T16:24:22;6.03;;;2.13;;
21624;SDS011;10974;51.034;3.744;2023-07-13T16:26:51;3.43;;;2.20;;
21624;SDS011;10974;51.034;3.744;2023-07-13T16:29:24;3.53;;;1.33;;
21624;SDS011;10974;51.034;3.744;2023-07-13T16:32:10;4.50;;;1.73;;
21624;SDS011;10974;51.034;3.744;2023-07-13T16:34:37;3.40;;;2.17;;
21624;SDS011;10974;51.034;3.744;2023-07-13T16:37:10;2.40;;;1.80;;
21624;SDS011;10974;51.034;3.744;2023-07-13T16:39:38;4.93;;;2.00;;
21624;SDS011;10974;51.034;3.744;2023-07-13T16:42:08;5.40;;;2.03;;
21624;SDS011;10974;51.034;3.744;2023-07-13T16:44:36;5.10;;;1.80;;
21624;SDS011;10974;51.034;3.744;2023-07-13T16:47:05;3.43;;;1.90;;
21624;SDS011;10974;51.034;3.744;2023-07-13T16:49:33;6.50;;;1.97;;
21624;SDS011;10974;51.034;3.744;2023-07-13T16:52:00;2.97;;;2.07;;
21624;SDS011;10974;51.034;3.744;2023-07-13T16:54:30;2.43;;;1.87;;
21624;SDS011;10974;51.034;3.744;2023-07-13T16:56:57;2.23;;;1.60;;
21624;SDS011;10974;51.034;3.744;2023-07-13T16:59:24;3.93;;;1.97;;
21624;SDS011;10974;51.034;3.744;2023-07-13T17:01:53;3.10;;;1.87;;
21624;SDS011;10974;51.034;3.744;2023-07-13T17:04:20;3.37;;;2.10;;
21624;SDS011;10974;51.034;3.744;2023-07-13T17:06:49;6.17;;;1.83;;
21624;SDS011;10974;51.034;3.744;2023-07-13T17:09:18;3.20;;;1.90;;
21624;SDS011;10974;51.034;3.744;2023-07-13T17:11:44;2.00;;;1.80;;
21624;SDS011;10974;51.034;3.744;2023-07-13T17:14:14;2.20;;;1.87;;
21624;SDS011;10974;51.034;3.744;2023-07-13T17:16:44;2.97;;;1.70;;
21624;SDS011;10974;51.034;3.744;2023-07-13T17:19:12;3.63;;;1.80;;
21624;SDS011;10974;51.034;3.744;2023-07-13T17:21:38;5.73;;;2.10;;
21624;SDS011;10974;51.034;3.744;2023-07-13T17:24:46;3.00;;;1.83;;
21624;SDS011;10974;51.034;3.744;2023-07-13T17:26:53;2.40;;;1.70;;
21624;SDS011;10974;51.034;3.744;2023-07-13T17:29:20;1.63;;;1.50;;
21624;SDS011;10974;51.034;3.744;2023-07-13T17:31:47;4.03;;;1.67;;
21624;SDS011;10974;51.034;3.744;2023-07-13T17:34:15;1.50;;;1.40;;
21624;SDS011;10974;51.034;3.744;2023-07-13T17:36:43;4.13;;;1.80;;
21624;SDS011;10974;51.034;3.744;2023-07-13T17:39:13;3.00;;;1.83;;
21624;SDS011;10974;51.034;3.744;2023-07-13T17:41:39;3.90;;;1.73;;
21624;SDS011;10974;51.034;3.744;2023-07-13T17:44:09;1.87;;;1.47;;
21624;SDS011;10974;51.034;3.744;2023-07-13T17:46:35;2.83;;;1.40;;
21624;SDS011;10974;51.034;3.744;2023-07-13T17:49:02;3.77;;;1.50;;
21624;SDS011;10974;51.034;3.744;2023-07-13T17:51:30;2.93;;;1.80;;
21624;SDS011;10974;51.034;3.744;2023-07-13T17:53:57;2.93;;;1.50;;
21624;SDS011;10974;51.034;3.744;2023-07-13T17:56:23;6.07;;;1.67;;
21624;SDS011;10974;51.034;3.744;2023-07-13T17:58:52;2.53;;;1.40;;
21624;SDS011;10974;51.034;3.744;2023-07-13T18:01:19;3.87;;;1.70;;
21624;SDS011;10974;51.034;3.744;2023-07-13T18:03:47;2.40;;;1.60;;
21624;SDS011;10974;51.034;3.744;2023-07-13T18:06:18;5.00;;;2.67;;
21624;SDS011;10974;51.034;3.744;2023-07-13T18:08:52;2.70;;;1.40;;
21624;SDS011;10974;51.034;3.744;2023-07-13T18:11:19;3.97;;;1.50;;
21624;SDS011;10974;51.034;3.744;2023-07-13T18:13:49;1.93;;;1.50;;
21624;SDS011;10974;51.034;3.744;2023-07-13T18:16:25;1.97;;;1.60;;
21624;SDS011;10974;51.034;3.744;2023-07-13T18:18:52;1.73;;;1.63;;
21624;SDS011;10974;51.034;3.744;2023-07-13T18:21:19;2.10;;;1.43;;
21624;SDS011;10974;51.034;3.744;2023-07-13T18:23:46;2.17;;;1.77;;
21624;SDS011;10974;51.034;3.744;2023-07-13T18:26:12;3.47;;;2.10;;
21624;SDS011;10974;51.034;3.744;2023-07-13T18:28:41;4.20;;;1.53;;
21624;SDS011;10974;51.034;3.744;2023-07-13T18:31:09;2.70;;;1.60;;
21624;SDS011;10974;51.034;3.744;2023-07-13T18:33:38;5.60;;;1.60;;
21624;SDS011;10974;51.034;3.744;2023-07-13T18:36:09;2.27;;;1.60;;
21624;SDS011;10974;51.034;3.744;2023-07-13T18:38:37;8.57;;;1.97;;
21624;SDS011;10974;51.034;3.744;2023-07-13T18:41:04;2.00;;;1.70;;
21624;SDS011;10974;51.034;3.744;2023-07-13T18:43:33;1.90;;;1.40;;
21624;SDS011;10974;51.034;3.744;2023-07-13T18:46:00;5.03;;;1.80;;
21624;SDS011;10974;51.034;3.744;2023-07-13T18:48:27;4.60;;;1.40;;
21624;SDS011;10974;51.034;3.744;2023-07-13T18:50:54;2.27;;;1.47;;
21624;SDS011;10974;51.034;3.744;2023-07-13T18:53:22;3.13;;;1.83;;
21624;SDS011;10974;51.034;3.744;2023-07-13T18:55:49;1.63;;;1.53;;
21624;SDS011;10974;51.034;3.744;2023-07-13T18:58:15;3.00;;;1.77;;
21624;SDS011;10974;51.034;3.744;2023-07-13T19:00:44;3.77;;;1.60;;
21624;SDS011;10974;51.034;3.744;2023-07-13T19:03:15;8.40;;;1.53;;
21624;SDS011;10974;51.034;3.744;2023-07-13T19:05:43;1.43;;;1.30;;
21624;SDS011;10974;51.034;3.744;2023-07-13T19:08:11;2.93;;;1.30;;
21624;SDS011;10974;51.034;3.744;2023-07-13T19:10:37;3.80;;;1.70;;
21624;SDS011;10974;51.034;3.744;2023-07-13T19:13:04;2.50;;;1.70;;
21624;SDS011;10974;51.034;3.744;2023-07-13T19:15:30;2.37;;;1.50;;
21624;SDS011;10974;51.034;3.744;2023-07-13T19:17:59;2.40;;;1.43;;